East Orange, Vermont
Current Conditions -  °F | °C
As of 12:51 AM on Friday 28 Nov 2014 (Local Time) from KMPV Reporting Station
Haze Haze  
Wind Chill: 21°   Ceiling: 2600
Heat Index: 21°   Visibility: 6mi
Dew Point: 19°   Wind: 0mph
Humidity: 92%   Direction: NA
Pressure: 30.01"   Gusts: NA
Location:  44.1344°N, 72.2538°W
Report Text: KMPV 280551Z AUTO 00000KT 6SM BR BKN026 OVC034 M06/M07 A3001 RMK AO2 SNE49 SLP182 P0001 60001 T10611072 11044 21061 56009
Loading
Personal Weather Stations






























Interactive Weather Map New forecast layout! Learn more

10-Day Weather Forecast

Advertisements
Track Severe Weather on mobile